Time,TemperatureF,DewpointF,PressureIn,WindDirection,WindDirectionDegrees,WindSpeedMPH,WindSpeedGustMPH,Humidity,HourlyPrecipIn,Conditions,Clouds,dailyrainin,SoftwareType,DateUTC
2013-01-20 00:04:00,70.0,67.0,30.10,North,353,2.0,5.0,89,0.00,,,0.00,,2013-01-20 05:04:00,
2013-01-20 00:12:00,70.0,67.0,30.10,North,353,2.0,5.0,89,0.00,,,0.00,,2013-01-20 05:12:00,
2013-01-20 00:23:00,70.0,67.0,30.09,North,353,2.0,5.0,89,0.00,,,0.00,,2013-01-20 05:23:00,
2013-01-20 00:33:00,70.0,67.0,30.09,North,353,1.0,3.0,89,0.00,,,0.00,,2013-01-20 05:33:00,
2013-01-20 00:43:00,70.0,67.0,30.09,North,353,1.0,3.0,89,0.00,,,0.00,,2013-01-20 05:43:00,
2013-01-20 00:53:00,70.0,67.0,30.09,North,353,3.0,4.0,89,0.00,,,0.00,,2013-01-20 05:53:00,
2013-01-20 01:02:00,70.0,67.0,30.09,North,353,3.0,6.0,90,0.00,,,0.00,,2013-01-20 06:02:00,
2013-01-20 01:12:00,70.0,67.0,30.09,North,353,3.0,6.0,90,0.00,,,0.00,,2013-01-20 06:12:00,
2013-01-20 01:22:00,70.0,67.0,30.09,North,353,2.0,6.0,89,0.00,,,0.00,,2013-01-20 06:22:00,
2013-01-20 01:33:00,69.0,66.0,30.08,North,353,2.0,5.0,89,0.00,,,0.00,,2013-01-20 06:33:00,
2013-01-20 01:43:00,69.0,66.0,30.08,North,353,2.0,5.0,89,0.00,,,0.00,,2013-01-20 06:43:00,
2013-01-20 01:53:00,70.0,67.0,30.08,North,353,1.0,4.0,89,0.00,,,0.00,,2013-01-20 06:53:00,
2013-01-20 02:02:00,70.0,67.0,30.08,North,353,1.0,4.0,89,0.00,,,0.00,,2013-01-20 07:02:00,
2013-01-20 02:12:00,70.0,67.0,30.08,North,353,1.0,4.0,89,0.00,,,0.00,,2013-01-20 07:12:00,
2013-01-20 02:22:00,70.0,67.0,30.07,North,353,0.0,3.0,89,0.00,,,0.00,,2013-01-20 07:22:00,
2013-01-20 02:32:00,70.0,67.0,30.07,North,353,0.0,2.0,90,0.00,,,0.00,,2013-01-20 07:32:00,
2013-01-20 02:42:00,70.0,67.0,30.07,North,353,0.0,2.0,90,0.00,,,0.00,,2013-01-20 07:42:00,
2013-01-20 02:52:00,70.0,67.0,30.07,North,353,3.0,5.0,90,0.00,,,0.00,,2013-01-20 07:52:00,
2013-01-20 03:02:00,70.0,67.0,30.07,North,353,3.0,6.0,90,0.00,,,0.00,,2013-01-20 08:02:00,
2013-01-20 03:12:00,70.0,67.0,30.07,North,353,3.0,6.0,90,0.00,,,0.00,,2013-01-20 08:12:00,
2013-01-20 03:22:00,70.0,67.0,30.06,North,353,2.0,7.0,90,0.00,,,0.00,,2013-01-20 08:22:00,
2013-01-20 03:32:00,70.0,67.0,30.07,North,353,1.0,5.0,91,0.00,,,0.00,,2013-01-20 08:32:00,
2013-01-20 03:42:00,70.0,67.0,30.07,North,353,1.0,5.0,91,0.00,,,0.00,,2013-01-20 08:42:00,
2013-01-20 03:53:00,70.0,67.0,30.07,North,353,2.0,4.0,91,0.00,,,0.00,,2013-01-20 08:53:00,
2013-01-20 04:02:00,70.0,67.0,30.06,North,353,3.0,6.0,91,0.00,,,0.00,,2013-01-20 09:02:00,
2013-01-20 04:12:00,70.0,67.0,30.06,North,353,3.0,6.0,91,0.00,,,0.00,,2013-01-20 09:12:00,
2013-01-20 04:22:00,70.0,67.0,30.06,North,353,3.0,5.0,91,0.00,,,0.00,,2013-01-20 09:22:00,
2013-01-20 04:33:00,70.0,68.0,30.06,North,353,3.0,7.0,92,0.00,,,0.00,,2013-01-20 09:33:00,
2013-01-20 04:42:00,70.0,68.0,30.06,North,353,3.0,7.0,92,0.00,,,0.00,,2013-01-20 09:42:00,
2013-01-20 04:53:00,70.0,68.0,30.06,NNW,343,5.0,8.0,92,0.00,,,0.00,,2013-01-20 09:53:00,
2013-01-20 05:02:00,70.0,68.0,30.07,NNW,333,6.0,10.0,92,0.00,,,0.00,,2013-01-20 10:02:00,
2013-01-20 05:12:00,70.0,68.0,30.07,NNW,333,6.0,10.0,92,0.00,,,0.00,,2013-01-20 10:12:00,
2013-01-20 05:23:00,69.0,67.0,30.07,NNW,338,6.0,9.0,92,0.00,,,0.00,,2013-01-20 10:23:00,
2013-01-20 05:32:00,69.0,67.0,30.07,North,353,6.0,9.0,92,0.00,,,0.00,,2013-01-20 10:32:00,
2013-01-20 05:42:00,69.0,67.0,30.07,North,353,6.0,9.0,92,0.00,,,0.00,,2013-01-20 10:42:00,
2013-01-20 05:53:00,69.0,67.0,30.09,NNW,333,7.0,10.0,93,0.00,,,0.00,,2013-01-20 10:53:00,
2013-01-20 06:02:00,69.0,67.0,30.09,NNW,328,7.0,11.0,93,0.00,,,0.00,,2013-01-20 11:02:00,
2013-01-20 06:12:00,69.0,67.0,30.09,NNW,328,7.0,11.0,93,0.00,,,0.00,,2013-01-20 11:12:00,
2013-01-20 06:22:00,69.0,67.0,30.07,North,357,5.0,8.0,93,0.00,,,0.00,,2013-01-20 11:22:00,
2013-01-20 06:33:00,69.0,67.0,30.07,NNW,338,6.0,9.0,93,0.00,,,0.00,,2013-01-20 11:33:00,
2013-01-20 06:43:00,69.0,67.0,30.07,NNW,338,6.0,9.0,93,0.00,,,0.00,,2013-01-20 11:43:00,
2013-01-20 06:54:00,69.0,67.0,30.08,NNW,348,4.0,7.0,93,0.00,,,0.00,,2013-01-20 11:54:00,
2013-01-20 07:03:00,69.0,67.0,30.08,North,351,5.0,7.0,94,0.00,,,0.00,,2013-01-20 12:03:00,
2013-01-20 07:12:00,69.0,67.0,30.08,North,351,5.0,7.0,94,0.00,,,0.00,,2013-01-20 12:12:00,
2013-01-20 07:23:00,69.0,67.0,30.09,North,354,4.0,7.0,94,0.00,,,0.00,,2013-01-20 12:23:00,
2013-01-20 07:33:00,69.0,67.0,30.09,NNE,14,5.0,7.0,94,0.00,,,0.00,,2013-01-20 12:33:00,
2013-01-20 07:43:00,69.0,67.0,30.09,NNE,14,5.0,7.0,94,0.00,,,0.00,,2013-01-20 12:43:00,
2013-01-20 07:53:00,69.0,67.0,30.09,North,9,4.0,8.0,94,0.00,,,0.00,,2013-01-20 12:53:00,
2013-01-20 08:03:00,69.0,67.0,30.09,North,3,7.0,10.0,94,0.00,,,0.00,,2013-01-20 13:03:00,
2013-01-20 08:12:00,69.0,67.0,30.09,North,3,7.0,10.0,94,0.00,,,0.00,,2013-01-20 13:12:00,
2013-01-20 08:23:00,69.0,67.0,30.10,NNE,27,4.0,9.0,94,0.00,,,0.00,,2013-01-20 13:23:00,
2013-01-20 08:33:00,70.0,68.0,30.11,North,2,3.0,9.0,93,0.00,,,0.00,,2013-01-20 13:33:00,
2013-01-20 08:43:00,70.0,68.0,30.11,North,2,3.0,9.0,93,0.00,,,0.00,,2013-01-20 13:43:00,
2013-01-20 08:53:00,70.0,68.0,30.12,North,4,3.0,7.0,93,0.00,,,0.00,,2013-01-20 13:53:00,
2013-01-20 09:02:00,70.0,68.0,30.12,North,356,5.0,9.0,92,0.00,,,0.00,,2013-01-20 14:02:00,
2013-01-20 09:12:00,70.0,68.0,30.12,North,356,5.0,9.0,92,0.00,,,0.00,,2013-01-20 14:12:00,
2013-01-20 09:23:00,72.0,69.0,30.12,North,360,6.0,11.0,91,0.00,,,0.00,,2013-01-20 14:23:00,
2013-01-20 09:33:00,73.0,70.0,30.13,NNE,16,4.0,10.0,90,0.00,,,0.00,,2013-01-20 14:33:00,
2013-01-20 09:43:00,73.0,70.0,30.13,NNE,16,4.0,10.0,90,0.00,,,0.00,,2013-01-20 14:43:00,
2013-01-20 09:53:00,74.0,69.0,30.14,North,6,3.0,7.0,85,0.00,,,0.00,,2013-01-20 14:53:00,
2013-01-20 10:03:00,74.0,68.0,30.14,NW,324,6.0,9.0,83,0.00,,,0.00,,2013-01-20 15:03:00,
2013-01-20 10:12:00,74.0,68.0,30.14,NW,324,6.0,9.0,83,0.00,,,0.00,,2013-01-20 15:12:00,
2013-01-20 10:23:00,73.0,69.0,30.14,NNW,328,6.0,9.0,86,0.00,,,0.00,,2013-01-20 15:23:00,
2013-01-20 10:33:00,74.0,69.0,30.14,WNW,289,6.0,8.0,85,0.00,,,0.00,,2013-01-20 15:33:00,
2013-01-20 10:43:00,74.0,69.0,30.14,WNW,289,6.0,8.0,85,0.00,,,0.00,,2013-01-20 15:43:00,
2013-01-20 10:53:00,74.0,69.0,30.14,NNW,347,6.0,9.0,85,0.00,,,0.00,,2013-01-20 15:53:00,
2013-01-20 11:03:00,74.0,69.0,30.13,North,351,6.0,9.0,84,0.00,,,0.00,,2013-01-20 16:03:00,
2013-01-20 11:12:00,74.0,69.0,30.13,North,351,6.0,9.0,84,0.00,,,0.00,,2013-01-20 16:12:00,
2013-01-20 11:23:00,74.0,69.0,30.12,NNW,343,7.0,10.0,84,0.00,,,0.00,,2013-01-20 16:23:00,
2013-01-20 11:33:00,74.0,69.0,30.11,North,349,6.0,10.0,84,0.00,,,0.00,,2013-01-20 16:33:00,
2013-01-20 11:43:00,74.0,69.0,30.11,North,349,6.0,10.0,84,0.00,,,0.00,,2013-01-20 16:43:00,
2013-01-20 11:53:00,75.0,70.0,30.11,NNW,343,4.0,9.0,84,0.00,,,0.00,,2013-01-20 16:53:00,
2013-01-20 12:03:00,75.0,69.0,30.10,NW,322,7.0,9.0,81,0.00,,,0.00,,2013-01-20 17:03:00,
2013-01-20 12:13:00,75.0,69.0,30.10,NW,322,7.0,9.0,81,0.00,,,0.00,,2013-01-20 17:13:00,
2013-01-20 12:22:00,75.0,69.0,30.09,NW,324,7.0,10.0,83,0.00,,,0.00,,2013-01-20 17:22:00,
2013-01-20 12:33:00,75.0,69.0,30.08,NNW,338,7.0,10.0,82,0.00,,,0.00,,2013-01-20 17:33:00,
2013-01-20 12:42:00,75.0,69.0,30.08,NNW,338,7.0,10.0,82,0.00,,,0.00,,2013-01-20 17:42:00,
2013-01-20 12:53:00,74.0,68.0,30.07,NNW,333,7.0,8.0,83,0.00,,,0.00,,2013-01-20 17:53:00,
2013-01-20 13:03:00,74.0,68.0,30.06,NNW,333,7.0,9.0,83,0.00,,,0.00,,2013-01-20 18:03:00,
2013-01-20 13:13:00,74.0,68.0,30.06,NNW,333,7.0,9.0,83,0.00,,,0.00,,2013-01-20 18:13:00,
2013-01-20 13:23:00,75.0,69.0,30.06,North,354,4.0,8.0,83,0.00,,,0.00,,2013-01-20 18:23:00,
2013-01-20 13:33:00,75.0,69.0,30.05,NNW,338,5.0,9.0,83,0.00,,,0.00,,2013-01-20 18:33:00,
2013-01-20 13:43:00,75.0,69.0,30.05,NNW,338,5.0,9.0,83,0.00,,,0.00,,2013-01-20 18:43:00,
2013-01-20 13:53:00,75.0,69.0,30.05,NW,326,4.0,7.0,82,0.00,,,0.00,,2013-01-20 18:53:00,
2013-01-20 14:03:00,75.0,69.0,30.04,NW,324,6.0,9.0,82,0.00,,,0.00,,2013-01-20 19:03:00,
2013-01-20 14:12:00,75.0,69.0,30.04,NW,324,6.0,9.0,82,0.00,,,0.00,,2013-01-20 19:12:00,
2013-01-20 14:53:00,75.0,69.0,30.03,NNW,347,6.0,8.0,81,0.00,,,0.00,,2013-01-20 19:53:00,
2013-01-20 15:03:00,74.0,68.0,30.03,NNW,333,5.0,7.0,82,0.00,,,0.00,,2013-01-20 20:03:00,
2013-01-20 15:12:00,74.0,68.0,30.03,NNW,333,5.0,7.0,82,0.00,,,0.00,,2013-01-20 20:12:00,
2013-01-20 15:23:00,74.0,68.0,30.02,NNW,333,6.0,8.0,82,0.00,,,0.00,,2013-01-20 20:23:00,
2013-01-20 15:33:00,74.0,68.0,30.02,NNW,343,6.0,9.0,82,0.00,,,0.00,,2013-01-20 20:33:00,
2013-01-20 15:42:00,74.0,68.0,30.02,NNW,343,6.0,9.0,82,0.00,,,0.00,,2013-01-20 20:42:00,
2013-01-20 15:54:00,74.0,68.0,30.01,NNW,333,6.0,9.0,82,0.00,,,0.00,,2013-01-20 20:54:00,
2013-01-20 16:04:00,75.0,69.0,30.01,NNW,338,8.0,11.0,82,0.00,,,0.00,,2013-01-20 21:04:00,
2013-01-20 16:13:00,75.0,69.0,30.01,NNW,338,8.0,11.0,82,0.00,,,0.00,,2013-01-20 21:13:00,
2013-01-20 16:23:00,75.0,68.0,30.01,NW,324,6.0,9.0,80,0.00,,,0.00,,2013-01-20 21:23:00,
2013-01-20 16:33:00,75.0,68.0,30.02,NNW,328,5.0,7.0,80,0.00,,,0.00,,2013-01-20 21:33:00,
2013-01-20 16:43:00,75.0,68.0,30.02,NNW,328,5.0,7.0,80,0.00,,,0.00,,2013-01-20 21:43:00,
2013-01-20 16:53:00,75.0,68.0,30.02,NNW,347,4.0,6.0,80,0.00,,,0.00,,2013-01-20 21:53:00,
2013-01-20 17:03:00,75.0,69.0,30.02,NNW,333,6.0,9.0,81,0.00,,,0.00,,2013-01-20 22:03:00,
2013-01-20 17:13:00,75.0,69.0,30.02,NNW,333,6.0,9.0,81,0.00,,,0.00,,2013-01-20 22:13:00,
2013-01-20 17:23:00,74.0,68.0,30.01,North,357,5.0,7.0,82,0.00,,,0.00,,2013-01-20 22:23:00,
2013-01-20 17:33:00,74.0,68.0,30.01,NNE,14,3.0,7.0,82,0.00,,,0.00,,2013-01-20 22:33:00,
2013-01-20 17:43:00,74.0,68.0,30.01,NNE,14,3.0,7.0,82,0.00,,,0.00,,2013-01-20 22:43:00,
2013-01-20 17:53:00,74.0,69.0,30.02,NNW,343,4.0,7.0,84,0.00,,,0.00,,2013-01-20 22:53:00,
2013-01-20 18:03:00,73.0,68.0,30.02,NNW,329,5.0,8.0,84,0.00,,,0.00,,2013-01-20 23:03:00,
2013-01-20 18:13:00,73.0,68.0,30.02,NNW,329,5.0,8.0,84,0.00,,,0.00,,2013-01-20 23:13:00,
2013-01-20 18:23:00,73.0,68.0,30.02,NNE,19,2.0,5.0,85,0.00,,,0.00,,2013-01-20 23:23:00,
2013-01-20 18:33:00,73.0,68.0,30.03,NNE,13,2.0,5.0,85,0.00,,,0.00,,2013-01-20 23:33:00,
2013-01-20 18:43:00,73.0,68.0,30.03,NNE,13,2.0,5.0,85,0.00,,,0.00,,2013-01-20 23:43:00,
2013-01-20 18:53:00,73.0,69.0,30.03,NNE,13,2.0,4.0,86,0.00,,,0.00,,2013-01-20 23:53:00,
2013-01-20 19:03:00,73.0,69.0,30.03,NNE,13,2.0,4.0,86,0.00,,,0.00,,2013-01-21 00:03:00,
2013-01-20 19:13:00,73.0,69.0,30.03,NNE,13,2.0,4.0,86,0.00,,,0.00,,2013-01-21 00:13:00,
2013-01-20 19:23:00,73.0,69.0,30.03,North,10,3.0,5.0,87,0.00,,,0.00,,2013-01-21 00:23:00,
2013-01-20 19:33:00,73.0,69.0,30.03,North,10,2.0,5.0,87,0.00,,,0.00,,2013-01-21 00:33:00,
2013-01-20 19:43:00,73.0,69.0,30.03,North,10,2.0,5.0,87,0.00,,,0.00,,2013-01-21 00:43:00,
2013-01-20 19:54:00,73.0,69.0,30.04,North,10,2.0,5.0,88,0.00,,,0.00,,2013-01-21 00:54:00,
2013-01-20 20:03:00,73.0,69.0,30.03,NNW,327,4.0,6.0,88,0.00,,,0.00,,2013-01-21 01:03:00,
2013-01-20 20:13:00,73.0,69.0,30.03,NNW,327,4.0,6.0,88,0.00,,,0.00,,2013-01-21 01:13:00,
2013-01-20 20:23:00,73.0,70.0,30.04,NNW,327,0.0,4.0,89,0.00,,,0.00,,2013-01-21 01:23:00,
2013-01-20 20:33:00,73.0,70.0,30.05,SSW,213,4.0,6.0,89,0.01,,,0.01,,2013-01-21 01:33:00,
2013-01-20 20:43:00,73.0,70.0,30.05,SSW,213,4.0,6.0,89,0.01,,,0.01,,2013-01-21 01:43:00,
2013-01-20 20:53:00,72.0,69.0,30.06,ESE,116,6.0,10.0,89,0.17,,,0.17,,2013-01-21 01:53:00,
2013-01-20 21:03:00,71.0,67.0,30.05,SE,124,3.0,7.0,88,0.30,,,0.30,,2013-01-21 02:03:00,
2013-01-20 21:12:00,71.0,67.0,30.05,SE,124,3.0,7.0,88,0.30,,,0.30,,2013-01-21 02:12:00,
2013-01-20 21:23:00,70.0,67.0,30.04,NNE,19,3.0,6.0,90,0.41,,,0.41,,2013-01-21 02:23:00,
2013-01-20 21:33:00,71.0,68.0,30.05,North,360,3.0,7.0,91,0.40,,,0.41,,2013-01-21 02:33:00,
2013-01-20 21:43:00,71.0,68.0,30.05,North,360,3.0,7.0,91,0.40,,,0.41,,2013-01-21 02:43:00,
2013-01-20 21:53:00,71.0,69.0,30.05,NNE,17,2.0,5.0,92,0.23,,,0.41,,2013-01-21 02:53:00,
2013-01-20 22:03:00,71.0,69.0,30.06,NNE,16,3.0,5.0,92,0.10,,,0.41,,2013-01-21 03:03:00,
2013-01-20 22:13:00,71.0,69.0,30.06,NNE,16,3.0,5.0,92,0.10,,,0.41,,2013-01-21 03:13:00,
2013-01-20 22:23:00,71.0,69.0,30.05,NNE,16,2.0,4.0,92,0.00,,,0.41,,2013-01-21 03:23:00,
2013-01-20 22:33:00,71.0,69.0,30.05,NNW,333,2.0,5.0,92,0.00,,,0.41,,2013-01-21 03:33:00,
2013-01-20 22:43:00,71.0,69.0,30.05,NNW,333,2.0,5.0,92,0.00,,,0.41,,2013-01-21 03:43:00,
2013-01-20 22:54:00,71.0,69.0,30.05,NNW,333,3.0,5.0,92,0.00,,,0.41,,2013-01-21 03:54:00,
2013-01-20 23:03:00,71.0,69.0,30.05,NNW,333,0.0,4.0,93,0.00,,,0.41,,2013-01-21 04:03:00,
2013-01-20 23:13:00,71.0,69.0,30.05,NNW,333,0.0,4.0,93,0.00,,,0.41,,2013-01-21 04:13:00,
2013-01-20 23:23:00,71.0,69.0,30.04,NNW,333,2.0,4.0,93,0.00,,,0.41,,2013-01-21 04:23:00,
2013-01-20 23:33:00,71.0,69.0,30.04,NNW,333,3.0,5.0,93,0.00,,,0.41,,2013-01-21 04:33:00,
2013-01-20 23:43:00,71.0,69.0,30.04,NNW,333,3.0,5.0,93,0.00,,,0.41,,2013-01-21 04:43:00,
2013-01-20 23:53:00,71.0,69.0,30.04,NNW,333,2.0,4.0,93,0.00,,,0.41,,2013-01-21 04:53:00,